createdAt,value
2019-03-23T00:01:32.396Z,6.78
2019-03-23T00:04:01.105Z,6.77
2019-03-23T00:06:30.996Z,6.79
2019-03-23T00:08:59.656Z,6.69
2019-03-23T00:11:28.221Z,6.69
2019-03-23T00:13:56.888Z,6.55
2019-03-23T00:16:25.530Z,6.40
2019-03-23T00:18:54.108Z,6.29
2019-03-23T00:21:22.897Z,6.20
2019-03-23T00:23:51.524Z,6.16
2019-03-23T00:26:20.018Z,6.08
2019-03-23T00:28:48.691Z,6.04
2019-03-23T00:31:17.320Z,6.01
2019-03-23T00:33:45.814Z,6.01
2019-03-23T00:36:14.494Z,5.99
2019-03-23T00:38:43.126Z,5.96
2019-03-23T00:41:11.768Z,6.04
2019-03-23T00:43:40.308Z,6.07
2019-03-23T00:46:08.807Z,6.12
2019-03-23T00:48:37.483Z,6.09
2019-03-23T00:51:06.156Z,6.03
2019-03-23T00:53:34.647Z,6.04
2019-03-23T00:56:03.212Z,5.98
2019-03-23T00:58:32.145Z,6.06
2019-03-23T01:01:00.777Z,6.05
2019-03-23T01:03:29.276Z,6.09
2019-03-23T01:05:57.915Z,6.08
2019-03-23T01:08:26.578Z,6.10
2019-03-23T01:10:56.401Z,6.08
2019-03-23T01:13:24.918Z,6.02
2019-03-23T01:15:53.412Z,5.95
2019-03-23T01:18:22.090Z,5.80
2019-03-23T01:20:50.728Z,5.65
2019-03-23T01:23:19.224Z,5.56
2019-03-23T01:25:47.759Z,5.54
2019-03-23T01:28:16.395Z,5.65
2019-03-23T01:30:45.033Z,5.72
2019-03-23T01:33:13.712Z,5.72
2019-03-23T01:35:43.213Z,5.65
2019-03-23T01:38:11.880Z,5.62
2019-03-23T01:40:40.822Z,5.47
2019-03-23T01:43:09.560Z,5.29
2019-03-23T01:45:38.194Z,5.15
2019-03-23T01:48:07.729Z,5.08
2019-03-23T01:50:36.296Z,5.01
2019-03-23T01:53:04.860Z,5.01
2019-03-23T01:55:33.533Z,4.94
2019-03-23T01:58:02.031Z,4.95
2019-03-23T02:00:30.840Z,4.95
2019-03-23T02:02:59.506Z,4.92
2019-03-23T02:05:28.140Z,4.93
2019-03-23T02:07:56.712Z,4.90
2019-03-23T02:10:26.135Z,4.97
2019-03-23T02:12:54.778Z,4.96
2019-03-23T02:15:23.477Z,5.02
2019-03-23T02:17:52.009Z,4.91
2019-03-23T02:20:20.647Z,4.79
2019-03-23T02:22:49.282Z,4.74
2019-03-23T02:25:18.089Z,4.71
2019-03-23T02:27:46.723Z,4.72
2019-03-23T02:30:15.434Z,4.88
2019-03-23T02:32:44.145Z,4.98
2019-03-23T02:35:12.976Z,4.96
2019-03-23T02:37:41.619Z,4.84
2019-03-23T02:40:11.154Z,4.78
2019-03-23T02:42:39.777Z,4.80
2019-03-23T02:45:10.421Z,4.87
2019-03-23T02:47:39.097Z,4.90
2019-03-23T02:50:09.727Z,4.90
2019-03-23T02:52:38.572Z,4.79
2019-03-23T02:55:09.489Z,4.69
2019-03-23T02:57:38.198Z,4.62
2019-03-23T03:00:12.559Z,4.60
2019-03-23T03:02:41.420Z,4.64
2019-03-23T03:05:10.653Z,4.60
2019-03-23T03:07:42.726Z,4.58
2019-03-23T03:10:12.189Z,4.50
2019-03-23T03:12:40.895Z,4.42
2019-03-23T03:15:10.148Z,4.44
2019-03-23T03:17:38.748Z,4.45
2019-03-23T03:20:11.132Z,4.36
2019-03-23T03:22:39.802Z,4.32
2019-03-23T03:25:09.471Z,4.35
2019-03-23T03:27:38.045Z,4.53
2019-03-23T03:30:08.924Z,4.73
2019-03-23T03:32:37.740Z,4.80
2019-03-23T03:35:06.977Z,4.79
2019-03-23T03:37:35.480Z,4.73
2019-03-23T03:40:05.657Z,4.65
2019-03-23T03:42:34.298Z,4.64
2019-03-23T03:45:02.785Z,4.57
2019-03-23T03:47:31.455Z,4.45
2019-03-23T03:50:00.344Z,4.37
2019-03-23T03:52:28.973Z,4.30
2019-03-23T03:54:57.495Z,4.32
2019-03-23T03:57:26.133Z,4.35
2019-03-23T03:59:54.760Z,4.34
2019-03-23T04:02:23.286Z,4.20
2019-03-23T04:04:51.799Z,4.02
2019-03-23T04:07:20.723Z,3.92
2019-03-23T04:09:49.389Z,3.88
2019-03-23T04:12:17.888Z,3.92
2019-03-23T04:14:46.487Z,4.02
2019-03-23T04:17:15.113Z,4.10
2019-03-23T04:19:43.748Z,4.15
2019-03-23T04:22:12.287Z,4.22
2019-03-23T04:24:40.919Z,4.21
2019-03-23T04:27:09.405Z,4.07
2019-03-23T04:29:38.007Z,3.94
2019-03-23T04:32:06.649Z,3.99
2019-03-23T04:34:35.276Z,4.24
2019-03-23T04:37:03.915Z,4.43
2019-03-23T04:39:32.416Z,4.63
2019-03-23T04:42:01.051Z,4.95
2019-03-23T04:44:29.722Z,5.34
2019-03-23T04:46:58.219Z,5.80
2019-03-23T04:49:26.737Z,6.32
2019-03-23T04:51:55.411Z,6.81
2019-03-23T04:54:24.056Z,7.34
2019-03-23T04:56:52.557Z,7.84
2019-03-23T04:59:21.103Z,8.45
2019-03-23T05:01:49.749Z,9.23
2019-03-23T05:04:18.250Z,9.90
2019-03-23T05:06:47.124Z,10.47
2019-03-23T05:09:15.769Z,10.80
2019-03-23T05:11:44.274Z,11.41
2019-03-23T05:14:12.969Z,12.01
2019-03-23T05:16:41.626Z,12.44
2019-03-23T05:19:10.293Z,12.77
2019-03-23T05:21:38.849Z,13.29
2019-03-23T05:24:07.419Z,13.40
2019-03-23T05:26:36.060Z,13.59
2019-03-23T05:29:04.870Z,13.85
2019-03-23T05:31:33.365Z,13.76
2019-03-23T05:34:01.939Z,14.18
2019-03-23T05:36:30.617Z,13.81
2019-03-23T05:38:59.187Z,14.23
2019-03-23T05:41:27.873Z,14.65
2019-03-23T05:43:56.553Z,15.06
2019-03-23T05:46:25.124Z,15.79
2019-03-23T05:48:53.628Z,16.23
2019-03-23T05:51:22.312Z,15.88
2019-03-23T05:53:50.952Z,15.80
2019-03-23T05:56:19.519Z,15.92
2019-03-23T05:58:48.060Z,16.24
2019-03-23T06:01:16.781Z,16.39
2019-03-23T06:03:45.415Z,17.04
2019-03-23T06:06:14.034Z,17.37
2019-03-23T06:08:42.609Z,17.67
2019-03-23T06:11:11.248Z,17.60
2019-03-23T06:13:39.940Z,18.04
2019-03-23T06:16:08.439Z,17.85
2019-03-23T06:18:36.940Z,18.20
2019-03-23T06:21:05.644Z,17.98
2019-03-23T06:23:34.285Z,18.65
2019-03-23T06:26:02.928Z,18.34
2019-03-23T06:28:31.477Z,18.88
2019-03-23T06:31:00.112Z,18.52
2019-03-23T06:33:28.759Z,18.99
2019-03-23T06:35:57.298Z,19.24
2019-03-23T06:38:25.802Z,19.34
2019-03-23T06:40:54.439Z,20.24
2019-03-23T06:43:23.145Z,19.41
2019-03-23T06:45:51.645Z,19.87
2019-03-23T06:48:20.143Z,20.19
2019-03-23T06:50:48.857Z,19.86
2019-03-23T06:53:17.518Z,19.22
2019-03-23T06:55:46.001Z,19.20
2019-03-23T06:58:14.544Z,18.57
2019-03-23T07:00:43.189Z,17.51
2019-03-23T07:03:11.762Z,16.93
2019-03-23T07:05:40.434Z,16.67
2019-03-23T07:08:09.071Z,17.55
2019-03-23T07:10:37.575Z,18.05
2019-03-23T07:13:06.122Z,18.49
2019-03-23T07:15:34.772Z,18.91
2019-03-23T07:18:03.413Z,19.30
2019-03-23T07:20:31.965Z,19.66
2019-03-23T07:23:00.463Z,19.96
2019-03-23T07:25:29.101Z,19.60
2019-03-23T07:27:57.794Z,19.35
2019-03-23T07:30:26.295Z,18.94
2019-03-23T07:32:54.798Z,18.14
2019-03-23T07:35:23.473Z,17.68
2019-03-23T07:37:52.113Z,17.46
2019-03-23T07:40:20.752Z,17.47
2019-03-23T07:42:49.443Z,17.62
2019-03-23T07:45:18.075Z,17.70
2019-03-23T07:47:46.572Z,17.65
2019-03-23T07:50:15.755Z,17.82
2019-03-23T07:52:45.314Z,17.73
2019-03-23T07:55:15.448Z,17.97
2019-03-23T07:57:45.318Z,17.88
2019-03-23T08:00:19.347Z,17.84
2019-03-23T08:02:48.083Z,18.03
2019-03-23T08:05:16.768Z,17.78
2019-03-23T08:07:45.505Z,18.24
2019-03-23T08:10:19.691Z,18.64
2019-03-23T08:12:48.370Z,18.82
2019-03-23T08:15:17.039Z,19.02
2019-03-23T08:17:45.535Z,18.65
2019-03-23T08:20:14.216Z,19.41
2019-03-23T08:22:42.884Z,19.58
2019-03-23T08:25:11.523Z,20.10
2019-03-23T08:27:41.637Z,20.06
2019-03-23T08:30:10.444Z,19.76
2019-03-23T08:32:38.944Z,19.31
2019-03-23T08:35:07.616Z,19.74
2019-03-23T08:37:36.260Z,19.83
2019-03-23T08:40:06.801Z,20.24
2019-03-23T08:42:35.406Z,20.07
2019-03-23T08:45:05.248Z,19.78
2019-03-23T08:47:33.887Z,19.32
2019-03-23T08:50:02.496Z,19.59
2019-03-23T08:52:30.986Z,19.36
2019-03-23T08:54:59.623Z,19.34
2019-03-23T08:57:28.302Z,19.66
2019-03-23T08:59:56.790Z,19.89
2019-03-23T09:02:25.422Z,20.15
2019-03-23T09:04:53.967Z,19.28
2019-03-23T09:07:22.533Z,19.21
2019-03-23T09:09:58.795Z,18.93
2019-03-23T09:12:21.588Z,18.56
2019-03-23T09:14:50.064Z,17.83
2019-03-23T09:17:18.629Z,17.81
2019-03-23T09:19:47.303Z,17.50
2019-03-23T09:22:15.931Z,17.16
2019-03-23T09:24:44.488Z,17.26
2019-03-23T09:27:13.034Z,17.11
2019-03-23T09:29:41.663Z,17.12
2019-03-23T09:32:10.297Z,16.55
2019-03-23T09:34:38.838Z,16.61
2019-03-23T09:37:07.403Z,16.59
2019-03-23T09:39:36.033Z,17.14
2019-03-23T09:42:07.039Z,17.46
2019-03-23T09:44:35.182Z,16.63
2019-03-23T09:47:03.947Z,15.90
2019-03-23T09:49:32.550Z,15.73
2019-03-23T09:52:01.048Z,16.04
2019-03-23T09:54:29.692Z,16.58
2019-03-23T09:56:59.619Z,17.27
2019-03-23T09:59:28.298Z,17.87
2019-03-23T10:01:56.857Z,18.00
2019-03-23T10:04:25.523Z,17.56
2019-03-23T10:06:54.156Z,17.21
2019-03-23T10:09:22.650Z,17.48
2019-03-23T10:11:51.176Z,17.54
2019-03-23T10:14:19.803Z,17.72
2019-03-23T10:16:48.432Z,18.16
2019-03-23T10:19:16.959Z,17.82
2019-03-23T10:21:45.606Z,17.73
2019-03-23T10:24:14.168Z,17.73
2019-03-23T10:26:42.713Z,17.76
2019-03-23T10:29:11.341Z,17.43
2019-03-23T10:31:39.977Z,17.76
2019-03-23T10:34:08.507Z,17.97
2019-03-23T10:36:37.007Z,17.95
2019-03-23T10:39:06.338Z,17.50
2019-03-23T10:41:35.006Z,17.64
2019-03-23T10:44:03.491Z,17.41
2019-03-23T10:46:31.986Z,18.10
2019-03-23T10:49:00.647Z,18.41
2019-03-23T10:51:29.277Z,18.49
2019-03-23T10:53:57.772Z,18.22
2019-03-23T10:56:26.300Z,18.09
2019-03-23T10:58:54.932Z,18.16
2019-03-23T11:01:23.568Z,17.99
2019-03-23T11:03:52.496Z,17.93
2019-03-23T11:06:21.137Z,18.26
2019-03-23T11:08:49.635Z,18.56
2019-03-23T11:11:18.171Z,18.87
2019-03-23T11:13:46.802Z,19.12
2019-03-23T11:16:15.433Z,19.22
2019-03-23T11:18:43.959Z,18.73
2019-03-23T11:21:12.445Z,18.31
2019-03-23T11:23:41.075Z,18.36
2019-03-23T11:26:09.751Z,18.35
2019-03-23T11:28:38.318Z,18.20
2019-03-23T11:31:06.809Z,18.03
2019-03-23T11:33:35.474Z,17.86
2019-03-23T11:36:04.112Z,17.82
2019-03-23T11:38:32.602Z,18.29
2019-03-23T11:41:01.209Z,18.97
2019-03-23T11:43:29.928Z,19.04
2019-03-23T11:45:58.683Z,19.34
2019-03-23T11:48:27.380Z,19.49
2019-03-23T11:50:55.876Z,19.81
2019-03-23T11:53:24.509Z,20.06
2019-03-23T11:55:53.361Z,20.43
2019-03-23T11:58:21.860Z,20.83
2019-03-23T12:00:50.496Z,21.10
2019-03-23T12:03:19.267Z,19.65
2019-03-23T12:05:47.903Z,18.98
2019-03-23T12:08:16.398Z,19.27
2019-03-23T12:10:44.924Z,19.45
2019-03-23T12:13:13.567Z,19.75
2019-03-23T12:15:42.192Z,19.91
2019-03-23T12:18:10.722Z,20.24
2019-03-23T12:20:39.355Z,20.42
2019-03-23T12:23:07.848Z,20.46
2019-03-23T12:25:36.452Z,20.39
2019-03-23T12:28:05.034Z,20.58
2019-03-23T12:30:33.669Z,20.75
2019-03-23T12:33:02.407Z,20.51
2019-03-23T12:35:30.900Z,19.98
2019-03-23T12:37:59.536Z,19.93
2019-03-23T12:40:28.205Z,20.17
2019-03-23T12:42:56.705Z,20.30
2019-03-23T12:45:25.207Z,20.26
2019-03-23T12:47:53.885Z,20.09
2019-03-23T12:50:22.521Z,20.13
2019-03-23T12:52:51.017Z,19.91
2019-03-23T12:55:19.546Z,20.13
2019-03-23T12:57:48.176Z,19.84
2019-03-23T13:00:17.112Z,20.01
2019-03-23T13:02:45.785Z,20.18
2019-03-23T13:05:14.418Z,20.43
2019-03-23T13:07:43.051Z,20.66
2019-03-23T13:10:13.478Z,20.49
2019-03-23T13:12:42.109Z,20.27
2019-03-23T13:15:15.023Z,19.63
2019-03-23T13:17:43.620Z,19.09
2019-03-23T13:20:12.908Z,19.03
2019-03-23T13:22:41.561Z,19.24
2019-03-23T13:25:10.743Z,19.45
2019-03-23T13:27:39.241Z,19.58
2019-03-23T13:30:13.401Z,19.30
2019-03-23T13:32:42.064Z,19.39
2019-03-23T13:35:11.299Z,19.29
2019-03-23T13:37:39.936Z,19.18
2019-03-23T13:40:10.534Z,19.34
2019-03-23T13:42:39.259Z,19.24
2019-03-23T13:45:09.166Z,19.11
2019-03-23T13:47:38.694Z,18.93
2019-03-23T13:50:09.574Z,18.90
2019-03-23T13:52:38.422Z,18.65
2019-03-23T13:55:07.946Z,18.70
2019-03-23T13:57:36.583Z,18.78
2019-03-23T14:00:10.124Z,18.61
2019-03-23T14:02:38.737Z,18.59
2019-03-23T14:05:15.646Z,18.67
2019-03-23T14:07:37.852Z,18.72
2019-03-23T14:10:06.820Z,18.72
2019-03-23T14:12:35.400Z,18.71
2019-03-23T14:15:04.936Z,18.67
2019-03-23T14:17:33.602Z,18.68
2019-03-23T14:20:02.129Z,18.52
2019-03-23T14:22:30.771Z,18.32
2019-03-23T14:24:59.440Z,18.22
2019-03-23T14:27:27.930Z,18.27
2019-03-23T14:29:56.431Z,18.30
2019-03-23T14:32:25.097Z,18.29
2019-03-23T14:34:53.725Z,18.32
2019-03-23T14:37:22.230Z,18.33
2019-03-23T14:39:50.822Z,18.21
2019-03-23T14:42:19.456Z,18.16
2019-03-23T14:44:48.204Z,18.15
2019-03-23T14:47:16.728Z,18.16
2019-03-23T14:49:45.251Z,18.11
2019-03-23T14:52:13.889Z,18.21
2019-03-23T14:54:42.555Z,18.10
2019-03-23T14:57:11.046Z,18.07
2019-03-23T14:59:39.677Z,17.90
2019-03-23T15:02:08.289Z,18.01
2019-03-23T15:04:36.779Z,17.99
2019-03-23T15:07:05.415Z,18.00
2019-03-23T15:09:34.099Z,17.96
2019-03-23T15:12:02.585Z,18.05
2019-03-23T15:14:31.074Z,17.99
2019-03-23T15:16:59.748Z,17.94
2019-03-23T15:19:28.381Z,17.95
2019-03-23T15:21:56.947Z,17.89
2019-03-23T15:24:25.560Z,17.80
2019-03-23T15:26:54.197Z,17.84
2019-03-23T15:29:22.826Z,17.78
2019-03-23T15:31:51.484Z,17.68
2019-03-23T15:34:19.974Z,17.60
2019-03-23T15:36:48.599Z,17.52
2019-03-23T15:39:17.125Z,17.41
2019-03-23T15:41:45.764Z,17.38
2019-03-23T15:44:14.396Z,17.38
2019-03-23T15:46:42.917Z,17.28
2019-03-23T15:49:11.406Z,17.28
2019-03-23T15:51:40.039Z,17.23
2019-03-23T15:54:08.710Z,17.23
2019-03-23T15:56:37.201Z,17.17
2019-03-23T15:59:05.773Z,17.02
2019-03-23T16:01:35.548Z,17.01
2019-03-23T16:04:04.188Z,16.97
2019-03-23T16:06:32.681Z,16.87
2019-03-23T16:09:01.275Z,16.85
2019-03-23T16:11:29.908Z,16.77
2019-03-23T16:13:58.541Z,16.70
2019-03-23T16:16:27.083Z,16.59
2019-03-23T16:18:55.723Z,16.54
2019-03-23T16:21:24.213Z,16.50
2019-03-23T16:23:52.748Z,16.39
2019-03-23T16:26:21.382Z,16.38
2019-03-23T16:28:50.085Z,16.31
2019-03-23T16:31:18.609Z,16.28
2019-03-23T16:33:47.108Z,16.20
2019-03-23T16:36:15.742Z,16.16
2019-03-23T16:38:44.609Z,16.19
2019-03-23T16:41:13.098Z,16.16
2019-03-23T16:43:41.589Z,16.05
2019-03-23T16:46:10.265Z,15.98
2019-03-23T16:48:38.972Z,15.95
2019-03-23T16:51:07.468Z,15.91
2019-03-23T16:53:36.022Z,15.84
2019-03-23T16:56:04.629Z,15.84
2019-03-23T16:58:33.267Z,15.86
2019-03-23T17:01:01.860Z,15.79
2019-03-23T17:03:30.361Z,15.65
2019-03-23T17:05:59.084Z,15.57
2019-03-23T17:08:27.750Z,15.62
2019-03-23T17:10:56.352Z,15.53
2019-03-23T17:13:24.976Z,15.49
2019-03-23T17:15:53.669Z,15.49
2019-03-23T17:18:22.295Z,15.40
2019-03-23T17:20:50.784Z,15.33
2019-03-23T17:23:19.410Z,15.30
2019-03-23T17:25:48.044Z,15.22
2019-03-23T17:28:16.674Z,15.16
2019-03-23T17:30:45.204Z,15.09
2019-03-23T17:33:13.696Z,15.02
2019-03-23T17:35:42.329Z,15.02
2019-03-23T17:38:10.869Z,14.97
2019-03-23T17:40:39.518Z,14.86
2019-03-23T17:43:08.151Z,14.77
2019-03-23T17:45:37.790Z,14.73
2019-03-23T17:48:06.428Z,14.68
2019-03-23T17:50:35.122Z,14.59
2019-03-23T17:53:03.792Z,14.51
2019-03-23T17:55:32.292Z,14.45
2019-03-23T17:58:00.851Z,14.41
2019-03-23T18:00:30.297Z,14.42
2019-03-23T18:02:59.181Z,14.32
2019-03-23T18:05:27.741Z,14.25
2019-03-23T18:07:56.358Z,14.16
2019-03-23T18:10:24.987Z,14.08
2019-03-23T18:12:53.627Z,14.06
2019-03-23T18:15:22.160Z,13.98
2019-03-23T18:17:51.329Z,13.90
2019-03-23T18:20:19.865Z,13.86
2019-03-23T18:22:48.401Z,13.77
2019-03-23T18:25:17.036Z,13.73
2019-03-23T18:27:45.666Z,13.68
2019-03-23T18:30:34.408Z,13.66
2019-03-23T18:33:03.467Z,13.61
2019-03-23T18:35:32.108Z,13.58
2019-03-23T18:38:01.095Z,13.53
2019-03-23T18:40:29.825Z,13.50
2019-03-23T18:42:58.381Z,13.40
2019-03-23T18:45:27.352Z,13.35
2019-03-23T18:47:55.986Z,13.28
2019-03-23T18:50:24.625Z,13.23
2019-03-23T18:52:54.419Z,13.12
2019-03-23T18:55:23.067Z,13.07
2019-03-23T18:57:52.006Z,13.04
2019-03-23T19:00:35.581Z,13.04
2019-03-23T19:03:04.213Z,13.08
2019-03-23T19:05:32.777Z,13.07
2019-03-23T19:08:01.352Z,13.03
2019-03-23T19:10:29.985Z,12.94
2019-03-23T19:12:58.666Z,12.90
2019-03-23T19:15:27.309Z,12.91
2019-03-23T19:17:55.940Z,12.77
2019-03-23T19:20:24.796Z,12.65
2019-03-23T19:22:53.493Z,12.52
2019-03-23T19:25:21.992Z,12.59
2019-03-23T19:27:50.751Z,12.46
2019-03-23T19:30:19.798Z,12.33
2019-03-23T19:32:48.435Z,12.27
2019-03-23T19:35:16.979Z,12.12
2019-03-23T19:37:45.652Z,12.10
2019-03-23T19:40:15.192Z,12.03
2019-03-23T19:42:43.799Z,11.94
2019-03-23T19:45:12.443Z,11.85
2019-03-23T19:47:41.128Z,11.75
2019-03-23T19:50:10.519Z,11.75
2019-03-23T19:52:39.103Z,11.56
2019-03-23T19:55:08.439Z,11.55
2019-03-23T19:57:37.117Z,11.48
2019-03-23T20:00:08.662Z,11.46
2019-03-23T20:02:37.306Z,11.23
2019-03-23T20:05:07.082Z,11.19
2019-03-23T20:07:35.723Z,11.05
2019-03-23T20:10:06.765Z,10.98
2019-03-23T20:12:35.311Z,10.94
2019-03-23T20:15:05.864Z,10.96
2019-03-23T20:17:34.363Z,10.94
2019-03-23T20:20:03.497Z,10.89
2019-03-23T20:22:32.142Z,10.87
2019-03-23T20:25:00.653Z,10.84
2019-03-23T20:27:29.180Z,10.81
2019-03-23T20:29:57.814Z,10.79
2019-03-23T20:32:26.471Z,10.78
2019-03-23T20:34:55.078Z,10.79
2019-03-23T20:37:23.583Z,10.80
2019-03-23T20:39:52.223Z,10.82
2019-03-23T20:42:20.899Z,10.76
2019-03-23T20:44:49.404Z,10.79
2019-03-23T20:47:17.976Z,10.74
2019-03-23T20:49:47.317Z,10.77
2019-03-23T20:52:15.954Z,10.72
2019-03-23T20:54:44.587Z,10.64
2019-03-23T20:57:23.191Z,10.56
2019-03-23T20:59:43.860Z,10.56
2019-03-23T21:02:12.358Z,10.53
2019-03-23T21:04:41.030Z,10.46
2019-03-23T21:07:09.669Z,10.40
2019-03-23T21:09:38.178Z,10.39
2019-03-23T21:12:06.807Z,10.37
2019-03-23T21:14:35.444Z,10.26
2019-03-23T21:17:04.081Z,10.23
2019-03-23T21:19:32.631Z,10.24
2019-03-23T21:22:01.135Z,10.26
2019-03-23T21:24:29.771Z,10.23
2019-03-23T21:26:58.441Z,10.22
2019-03-23T21:29:27.024Z,10.22
2019-03-23T21:31:55.518Z,10.16
2019-03-23T21:34:24.383Z,10.12
2019-03-23T21:36:52.891Z,10.11
2019-03-23T21:39:21.456Z,10.03
2019-03-23T21:41:50.133Z,9.96
2019-03-23T21:44:18.635Z,9.86
2019-03-23T21:46:47.134Z,9.80
2019-03-23T21:49:15.804Z,9.70
2019-03-23T21:51:44.429Z,9.64
2019-03-23T21:54:12.927Z,9.62
2019-03-23T21:56:41.509Z,9.57
2019-03-23T21:59:10.142Z,9.61
2019-03-23T22:01:38.801Z,9.58
2019-03-23T22:04:07.364Z,9.55
2019-03-23T22:06:35.857Z,9.59
2019-03-23T22:09:06.290Z,9.59
2019-03-23T22:11:35.172Z,9.49
2019-03-23T22:14:03.739Z,9.45
2019-03-23T22:16:32.309Z,9.40
2019-03-23T22:19:00.980Z,9.35
2019-03-23T22:21:29.616Z,9.32
2019-03-23T22:23:58.111Z,9.31
2019-03-23T22:26:26.650Z,9.17
2019-03-23T22:28:55.281Z,9.07
2019-03-23T22:31:23.917Z,9.10
2019-03-23T22:33:52.478Z,9.17
2019-03-23T22:36:20.980Z,9.19
2019-03-23T22:38:49.611Z,9.29
2019-03-23T22:41:18.274Z,9.34
2019-03-23T22:43:46.810Z,9.07
2019-03-23T22:46:15.393Z,8.98
2019-03-23T22:48:44.068Z,8.84
2019-03-23T22:51:12.710Z,8.79
2019-03-23T22:53:41.201Z,8.72
2019-03-23T22:56:09.874Z,8.82
2019-03-23T22:58:38.436Z,8.83
2019-03-23T23:01:07.062Z,8.89
2019-03-23T23:03:35.722Z,8.89
2019-03-23T23:06:04.465Z,8.88
2019-03-23T23:08:32.960Z,8.86
2019-03-23T23:11:01.496Z,8.86
2019-03-23T23:13:30.122Z,8.86
2019-03-23T23:15:58.756Z,8.84
2019-03-23T23:18:27.352Z,8.75
2019-03-23T23:20:56.316Z,8.67
2019-03-23T23:23:24.961Z,8.64
2019-03-23T23:25:53.638Z,8.26
2019-03-23T23:28:22.229Z,8.10
2019-03-23T23:30:50.794Z,8.03
2019-03-23T23:33:19.639Z,7.94
2019-03-23T23:35:48.138Z,7.90
2019-03-23T23:38:16.770Z,7.95
2019-03-23T23:40:45.443Z,7.87
2019-03-23T23:43:13.932Z,7.90
2019-03-23T23:45:42.504Z,7.84
2019-03-23T23:48:11.180Z,7.83
2019-03-23T23:50:39.818Z,7.83
2019-03-23T23:53:08.317Z,7.77
2019-03-23T23:55:36.858Z,7.76
2019-03-23T23:58:05.707Z,7.77
